sensor_id;sensor_type;location;lat;lon;timestamp;P1;durP1;ratioP1;P2;durP2;ratioP2
18159;SDS011;9205;52.032;4.314;2024-01-15T00:01:16;2.40;;;2.30;;
18159;SDS011;9205;52.032;4.314;2024-01-15T00:03:44;2.60;;;2.40;;
18159;SDS011;9205;52.032;4.314;2024-01-15T00:06:11;2.30;;;2.20;;
18159;SDS011;9205;52.032;4.314;2024-01-15T00:08:38;2.93;;;2.83;;
18159;SDS011;9205;52.032;4.314;2024-01-15T00:11:05;2.80;;;2.70;;
18159;SDS011;9205;52.032;4.314;2024-01-15T00:13:32;4.80;;;3.37;;
18159;SDS011;9205;52.032;4.314;2024-01-15T00:15:59;2.80;;;2.63;;
18159;SDS011;9205;52.032;4.314;2024-01-15T00:18:28;2.97;;;2.80;;
18159;SDS011;9205;52.032;4.314;2024-01-15T00:20:55;2.50;;;2.40;;
18159;SDS011;9205;52.032;4.314;2024-01-15T00:23:22;2.80;;;2.70;;
18159;SDS011;9205;52.032;4.314;2024-01-15T00:25:50;2.90;;;2.80;;
18159;SDS011;9205;52.032;4.314;2024-01-15T00:28:18;3.53;;;3.40;;
18159;SDS011;9205;52.032;4.314;2024-01-15T00:30:45;3.50;;;3.40;;
18159;SDS011;9205;52.032;4.314;2024-01-15T00:33:12;3.20;;;3.10;;
18159;SDS011;9205;52.032;4.314;2024-01-15T00:35:41;3.00;;;2.90;;
18159;SDS011;9205;52.032;4.314;2024-01-15T00:38:08;3.40;;;3.20;;
18159;SDS011;9205;52.032;4.314;2024-01-15T00:40:35;3.00;;;2.90;;
18159;SDS011;9205;52.032;4.314;2024-01-15T00:43:02;13.93;;;3.40;;
18159;SDS011;9205;52.032;4.314;2024-01-15T00:45:32;2.90;;;2.80;;
18159;SDS011;9205;52.032;4.314;2024-01-15T00:47:59;2.60;;;2.50;;
18159;SDS011;9205;52.032;4.314;2024-01-15T00:50:26;2.90;;;2.80;;
18159;SDS011;9205;52.032;4.314;2024-01-15T00:52:55;2.97;;;2.87;;
18159;SDS011;9205;52.032;4.314;2024-01-15T00:55:22;2.80;;;2.70;;
18159;SDS011;9205;52.032;4.314;2024-01-15T00:57:50;3.03;;;2.93;;
18159;SDS011;9205;52.032;4.314;2024-01-15T01:00:17;2.70;;;2.60;;
18159;SDS011;9205;52.032;4.314;2024-01-15T01:02:44;2.87;;;2.77;;
18159;SDS011;9205;52.032;4.314;2024-01-15T01:05:11;2.60;;;2.50;;
18159;SDS011;9205;52.032;4.314;2024-01-15T01:07:39;2.50;;;2.40;;
18159;SDS011;9205;52.032;4.314;2024-01-15T01:10:07;3.10;;;2.97;;
18159;SDS011;9205;52.032;4.314;2024-01-15T01:12:35;2.90;;;2.80;;
18159;SDS011;9205;52.032;4.314;2024-01-15T01:15:03;3.20;;;3.10;;
18159;SDS011;9205;52.032;4.314;2024-01-15T01:17:31;3.40;;;3.30;;
18159;SDS011;9205;52.032;4.314;2024-01-15T01:19:59;3.20;;;3.10;;
18159;SDS011;9205;52.032;4.314;2024-01-15T01:22:29;3.30;;;3.20;;
18159;SDS011;9205;52.032;4.314;2024-01-15T01:24:56;3.40;;;3.30;;
18159;SDS011;9205;52.032;4.314;2024-01-15T01:27:25;3.40;;;3.30;;
18159;SDS011;9205;52.032;4.314;2024-01-15T01:29:52;3.50;;;3.40;;
18159;SDS011;9205;52.032;4.314;2024-01-15T01:32:19;3.90;;;3.70;;
18159;SDS011;9205;52.032;4.314;2024-01-15T01:34:46;5.93;;;4.53;;
18159;SDS011;9205;52.032;4.314;2024-01-15T01:37:13;3.70;;;3.60;;
18159;SDS011;9205;52.032;4.314;2024-01-15T01:39:41;3.57;;;3.47;;
18159;SDS011;9205;52.032;4.314;2024-01-15T01:42:09;4.10;;;3.90;;
18159;SDS011;9205;52.032;4.314;2024-01-15T01:44:39;4.20;;;4.00;;
18159;SDS011;9205;52.032;4.314;2024-01-15T01:47:15;6.60;;;4.60;;
18159;SDS011;9205;52.032;4.314;2024-01-15T01:49:43;5.10;;;4.80;;
18159;SDS011;9205;52.032;4.314;2024-01-15T01:52:10;4.87;;;4.57;;
18159;SDS011;9205;52.032;4.314;2024-01-15T01:54:37;4.40;;;4.20;;
18159;SDS011;9205;52.032;4.314;2024-01-15T01:57:06;4.03;;;3.83;;
18159;SDS011;9205;52.032;4.314;2024-01-15T01:59:35;3.80;;;3.60;;
18159;SDS011;9205;52.032;4.314;2024-01-15T02:02:03;3.90;;;3.70;;
18159;SDS011;9205;52.032;4.314;2024-01-15T02:04:34;4.43;;;4.23;;
18159;SDS011;9205;52.032;4.314;2024-01-15T02:07:02;4.30;;;4.10;;
18159;SDS011;9205;52.032;4.314;2024-01-15T02:09:29;3.90;;;3.70;;
18159;SDS011;9205;52.032;4.314;2024-01-15T02:11:57;4.30;;;4.10;;
18159;SDS011;9205;52.032;4.314;2024-01-15T02:14:24;5.30;;;4.80;;
18159;SDS011;9205;52.032;4.314;2024-01-15T02:16:51;4.20;;;4.00;;
18159;SDS011;9205;52.032;4.314;2024-01-15T02:19:18;4.20;;;4.00;;
18159;SDS011;9205;52.032;4.314;2024-01-15T02:21:47;4.50;;;4.30;;
18159;SDS011;9205;52.032;4.314;2024-01-15T02:24:15;4.23;;;4.03;;
18159;SDS011;9205;52.032;4.314;2024-01-15T02:26:43;3.90;;;3.70;;
18159;SDS011;9205;52.032;4.314;2024-01-15T02:29:10;3.70;;;3.60;;
18159;SDS011;9205;52.032;4.314;2024-01-15T02:31:39;4.00;;;3.80;;
18159;SDS011;9205;52.032;4.314;2024-01-15T02:34:06;4.20;;;4.00;;
18159;SDS011;9205;52.032;4.314;2024-01-15T02:36:33;4.50;;;4.20;;
18159;SDS011;9205;52.032;4.314;2024-01-15T02:39:00;3.90;;;3.70;;
18159;SDS011;9205;52.032;4.314;2024-01-15T02:41:29;4.20;;;4.00;;
18159;SDS011;9205;52.032;4.314;2024-01-15T02:43:56;4.07;;;3.87;;
18159;SDS011;9205;52.032;4.314;2024-01-15T02:46:23;3.90;;;3.70;;
18159;SDS011;9205;52.032;4.314;2024-01-15T02:48:50;4.00;;;3.80;;
18159;SDS011;9205;52.032;4.314;2024-01-15T02:51:17;4.13;;;3.93;;
18159;SDS011;9205;52.032;4.314;2024-01-15T02:53:44;4.10;;;3.90;;
18159;SDS011;9205;52.032;4.314;2024-01-15T02:56:11;4.27;;;4.07;;
18159;SDS011;9205;52.032;4.314;2024-01-15T02:58:40;5.27;;;4.87;;
18159;SDS011;9205;52.032;4.314;2024-01-15T03:01:07;4.80;;;4.60;;
18159;SDS011;9205;52.032;4.314;2024-01-15T03:03:34;4.20;;;4.00;;
18159;SDS011;9205;52.032;4.314;2024-01-15T03:06:01;3.90;;;3.70;;
18159;SDS011;9205;52.032;4.314;2024-01-15T03:08:29;3.77;;;3.60;;
18159;SDS011;9205;52.032;4.314;2024-01-15T03:10:56;4.00;;;3.80;;
18159;SDS011;9205;52.032;4.314;2024-01-15T03:13:24;3.60;;;3.50;;
18159;SDS011;9205;52.032;4.314;2024-01-15T03:15:52;8.60;;;4.47;;
18159;SDS011;9205;52.032;4.314;2024-01-15T03:18:19;3.70;;;3.60;;
18159;SDS011;9205;52.032;4.314;2024-01-15T03:20:46;3.60;;;3.50;;
18159;SDS011;9205;52.032;4.314;2024-01-15T03:23:13;23.23;;;3.90;;
18159;SDS011;9205;52.032;4.314;2024-01-15T03:25:41;3.70;;;3.50;;
18159;SDS011;9205;52.032;4.314;2024-01-15T03:28:08;3.50;;;3.40;;
18159;SDS011;9205;52.032;4.314;2024-01-15T03:30:35;10.73;;;4.30;;
18159;SDS011;9205;52.032;4.314;2024-01-15T03:33:04;4.00;;;3.80;;
18159;SDS011;9205;52.032;4.314;2024-01-15T03:35:31;4.63;;;4.43;;
18159;SDS011;9205;52.032;4.314;2024-01-15T03:37:58;3.60;;;3.50;;
18159;SDS011;9205;52.032;4.314;2024-01-15T03:40:25;3.60;;;3.50;;
18159;SDS011;9205;52.032;4.314;2024-01-15T03:42:53;3.67;;;3.53;;
18159;SDS011;9205;52.032;4.314;2024-01-15T03:45:20;3.50;;;3.40;;
18159;SDS011;9205;52.032;4.314;2024-01-15T03:47:47;3.40;;;3.30;;
18159;SDS011;9205;52.032;4.314;2024-01-15T03:50:16;3.60;;;3.50;;
18159;SDS011;9205;52.032;4.314;2024-01-15T03:52:43;3.50;;;3.40;;
18159;SDS011;9205;52.032;4.314;2024-01-15T03:55:10;3.50;;;3.40;;
18159;SDS011;9205;52.032;4.314;2024-01-15T03:57:37;3.97;;;3.77;;
18159;SDS011;9205;52.032;4.314;2024-01-15T04:00:05;3.60;;;3.50;;
18159;SDS011;9205;52.032;4.314;2024-01-15T04:02:34;3.80;;;3.60;;
18159;SDS011;9205;52.032;4.314;2024-01-15T04:05:01;4.00;;;3.80;;
18159;SDS011;9205;52.032;4.314;2024-01-15T04:07:30;4.10;;;3.90;;
18159;SDS011;9205;52.032;4.314;2024-01-15T04:09:57;4.10;;;3.90;;
18159;SDS011;9205;52.032;4.314;2024-01-15T04:12:24;4.20;;;4.00;;
18159;SDS011;9205;52.032;4.314;2024-01-15T04:14:51;3.90;;;3.70;;
18159;SDS011;9205;52.032;4.314;2024-01-15T04:17:18;3.87;;;3.67;;
18159;SDS011;9205;52.032;4.314;2024-01-15T04:19:46;3.60;;;3.50;;
18159;SDS011;9205;52.032;4.314;2024-01-15T04:22:14;3.50;;;3.40;;
18159;SDS011;9205;52.032;4.314;2024-01-15T04:24:42;3.70;;;3.60;;
18159;SDS011;9205;52.032;4.314;2024-01-15T04:27:09;3.80;;;3.60;;
18159;SDS011;9205;52.032;4.314;2024-01-15T04:29:37;3.50;;;3.40;;
18159;SDS011;9205;52.032;4.314;2024-01-15T04:32:05;3.63;;;3.53;;
18159;SDS011;9205;52.032;4.314;2024-01-15T04:34:32;3.50;;;3.40;;
18159;SDS011;9205;52.032;4.314;2024-01-15T04:36:59;3.47;;;3.37;;
18159;SDS011;9205;52.032;4.314;2024-01-15T04:39:26;3.30;;;3.20;;
18159;SDS011;9205;52.032;4.314;2024-01-15T04:41:55;3.10;;;3.00;;
18159;SDS011;9205;52.032;4.314;2024-01-15T04:44:22;3.60;;;3.40;;
18159;SDS011;9205;52.032;4.314;2024-01-15T04:46:49;2.80;;;2.70;;
18159;SDS011;9205;52.032;4.314;2024-01-15T04:49:16;2.83;;;2.73;;
18159;SDS011;9205;52.032;4.314;2024-01-15T04:51:43;3.20;;;3.07;;
18159;SDS011;9205;52.032;4.314;2024-01-15T04:54:10;2.70;;;2.60;;
18159;SDS011;9205;52.032;4.314;2024-01-15T04:56:37;2.60;;;2.50;;
18159;SDS011;9205;52.032;4.314;2024-01-15T04:59:06;2.50;;;2.40;;
18159;SDS011;9205;52.032;4.314;2024-01-15T05:01:33;2.60;;;2.50;;
18159;SDS011;9205;52.032;4.314;2024-01-15T05:04:00;2.60;;;2.50;;
18159;SDS011;9205;52.032;4.314;2024-01-15T05:06:28;2.60;;;2.50;;
18159;SDS011;9205;52.032;4.314;2024-01-15T05:08:55;2.60;;;2.50;;
18159;SDS011;9205;52.032;4.314;2024-01-15T05:11:22;2.70;;;2.60;;
18159;SDS011;9205;52.032;4.314;2024-01-15T05:13:49;2.70;;;2.60;;
18159;SDS011;9205;52.032;4.314;2024-01-15T05:16:17;2.70;;;2.60;;
18159;SDS011;9205;52.032;4.314;2024-01-15T05:18:45;2.97;;;2.87;;
18159;SDS011;9205;52.032;4.314;2024-01-15T05:21:12;2.90;;;2.80;;
18159;SDS011;9205;52.032;4.314;2024-01-15T05:23:39;3.23;;;3.03;;
18159;SDS011;9205;52.032;4.314;2024-01-15T05:26:06;3.67;;;3.43;;
18159;SDS011;9205;52.032;4.314;2024-01-15T05:28:34;2.80;;;2.70;;
18159;SDS011;9205;52.032;4.314;2024-01-15T05:31:01;2.80;;;2.70;;
18159;SDS011;9205;52.032;4.314;2024-01-15T05:33:30;3.33;;;3.13;;
18159;SDS011;9205;52.032;4.314;2024-01-15T05:35:57;3.00;;;2.90;;
18159;SDS011;9205;52.032;4.314;2024-01-15T05:38:25;3.23;;;3.13;;
18159;SDS011;9205;52.032;4.314;2024-01-15T05:40:52;2.97;;;2.87;;
18159;SDS011;9205;52.032;4.314;2024-01-15T05:43:19;3.10;;;3.00;;
18159;SDS011;9205;52.032;4.314;2024-01-15T05:45:46;3.10;;;3.00;;
18159;SDS011;9205;52.032;4.314;2024-01-15T05:48:13;3.30;;;3.20;;
18159;SDS011;9205;52.032;4.314;2024-01-15T05:50:42;3.10;;;3.00;;
18159;SDS011;9205;52.032;4.314;2024-01-15T05:53:09;3.40;;;3.20;;
18159;SDS011;9205;52.032;4.314;2024-01-15T05:55:36;3.30;;;3.20;;
18159;SDS011;9205;52.032;4.314;2024-01-15T05:58:03;3.50;;;3.40;;
18159;SDS011;9205;52.032;4.314;2024-01-15T06:00:31;3.50;;;3.40;;
18159;SDS011;9205;52.032;4.314;2024-01-15T06:03:00;3.60;;;3.50;;
18159;SDS011;9205;52.032;4.314;2024-01-15T06:05:27;3.50;;;3.40;;
18159;SDS011;9205;52.032;4.314;2024-01-15T06:07:56;3.20;;;3.10;;
18159;SDS011;9205;52.032;4.314;2024-01-15T06:10:23;3.10;;;3.00;;
18159;SDS011;9205;52.032;4.314;2024-01-15T06:12:50;3.00;;;2.90;;
18159;SDS011;9205;52.032;4.314;2024-01-15T06:15:17;3.30;;;3.20;;
18159;SDS011;9205;52.032;4.314;2024-01-15T06:17:44;2.97;;;2.87;;
18159;SDS011;9205;52.032;4.314;2024-01-15T06:20:12;3.10;;;3.00;;
18159;SDS011;9205;52.032;4.314;2024-01-15T06:22:39;3.83;;;3.53;;
18159;SDS011;9205;52.032;4.314;2024-01-15T06:25:08;2.80;;;2.70;;
18159;SDS011;9205;52.032;4.314;2024-01-15T06:27:35;11.47;;;3.30;;
18159;SDS011;9205;52.032;4.314;2024-01-15T06:30:03;2.50;;;2.40;;
18159;SDS011;9205;52.032;4.314;2024-01-15T06:32:31;3.23;;;3.03;;
18159;SDS011;9205;52.032;4.314;2024-01-15T06:34:59;2.70;;;2.60;;
18159;SDS011;9205;52.032;4.314;2024-01-15T06:37:26;2.90;;;2.80;;
18159;SDS011;9205;52.032;4.314;2024-01-15T06:39:53;2.70;;;2.60;;
18159;SDS011;9205;52.032;4.314;2024-01-15T06:42:21;2.70;;;2.60;;
18159;SDS011;9205;52.032;4.314;2024-01-15T06:44:48;2.80;;;2.70;;
18159;SDS011;9205;52.032;4.314;2024-01-15T06:47:16;2.90;;;2.80;;
18159;SDS011;9205;52.032;4.314;2024-01-15T06:49:43;2.70;;;2.60;;
18159;SDS011;9205;52.032;4.314;2024-01-15T06:52:10;2.90;;;2.80;;
18159;SDS011;9205;52.032;4.314;2024-01-15T06:54:37;2.70;;;2.60;;
18159;SDS011;9205;52.032;4.314;2024-01-15T06:57:05;3.10;;;3.00;;
18159;SDS011;9205;52.032;4.314;2024-01-15T06:59:33;10.87;;;3.87;;
18159;SDS011;9205;52.032;4.314;2024-01-15T07:02:01;3.20;;;3.10;;
18159;SDS011;9205;52.032;4.314;2024-01-15T07:04:29;3.10;;;3.00;;
18159;SDS011;9205;52.032;4.314;2024-01-15T07:06:56;9.87;;;3.87;;
18159;SDS011;9205;52.032;4.314;2024-01-15T07:09:23;3.60;;;3.40;;
18159;SDS011;9205;52.032;4.314;2024-01-15T07:11:50;30.03;;;4.43;;
18159;SDS011;9205;52.032;4.314;2024-01-15T07:14:17;3.70;;;3.50;;
18159;SDS011;9205;52.032;4.314;2024-01-15T07:16:46;3.40;;;3.30;;
18159;SDS011;9205;52.032;4.314;2024-01-15T07:19:13;3.60;;;3.40;;
18159;SDS011;9205;52.032;4.314;2024-01-15T07:21:40;4.13;;;3.87;;
18159;SDS011;9205;52.032;4.314;2024-01-15T07:24:08;3.57;;;3.40;;
18159;SDS011;9205;52.032;4.314;2024-01-15T07:26:35;4.10;;;3.90;;
18159;SDS011;9205;52.032;4.314;2024-01-15T07:29:02;3.60;;;3.50;;
18159;SDS011;9205;52.032;4.314;2024-01-15T07:31:30;3.40;;;3.30;;
18159;SDS011;9205;52.032;4.314;2024-01-15T07:33:59;3.90;;;3.70;;
18159;SDS011;9205;52.032;4.314;2024-01-15T07:36:26;3.50;;;3.40;;
18159;SDS011;9205;52.032;4.314;2024-01-15T07:38:53;4.00;;;3.80;;
18159;SDS011;9205;52.032;4.314;2024-01-15T07:41:20;3.60;;;3.50;;
18159;SDS011;9205;52.032;4.314;2024-01-15T07:43:48;3.80;;;3.60;;
18159;SDS011;9205;52.032;4.314;2024-01-15T07:46:15;11.77;;;4.83;;
18159;SDS011;9205;52.032;4.314;2024-01-15T07:48:43;5.33;;;4.83;;
18159;SDS011;9205;52.032;4.314;2024-01-15T07:51:11;4.50;;;4.30;;
18159;SDS011;9205;52.032;4.314;2024-01-15T07:53:38;4.30;;;4.10;;
18159;SDS011;9205;52.032;4.314;2024-01-15T07:56:05;4.10;;;3.90;;
18159;SDS011;9205;52.032;4.314;2024-01-15T07:58:32;5.30;;;4.80;;
18159;SDS011;9205;52.032;4.314;2024-01-15T08:01:00;4.20;;;4.00;;
18159;SDS011;9205;52.032;4.314;2024-01-15T08:03:27;4.40;;;4.20;;
18159;SDS011;9205;52.032;4.314;2024-01-15T08:05:54;3.70;;;3.60;;
18159;SDS011;9205;52.032;4.314;2024-01-15T08:08:24;4.13;;;3.93;;
18159;SDS011;9205;52.032;4.314;2024-01-15T08:10:51;3.70;;;3.60;;
18159;SDS011;9205;52.032;4.314;2024-01-15T08:13:18;3.60;;;3.50;;
18159;SDS011;9205;52.032;4.314;2024-01-15T08:15:46;3.90;;;3.70;;
18159;SDS011;9205;52.032;4.314;2024-01-15T08:18:13;4.13;;;3.93;;
18159;SDS011;9205;52.032;4.314;2024-01-15T08:20:40;4.20;;;4.00;;
18159;SDS011;9205;52.032;4.314;2024-01-15T08:23:07;4.50;;;4.30;;
18159;SDS011;9205;52.032;4.314;2024-01-15T08:25:36;8.80;;;4.77;;
18159;SDS011;9205;52.032;4.314;2024-01-15T08:28:04;5.20;;;4.70;;
18159;SDS011;9205;52.032;4.314;2024-01-15T08:30:31;4.10;;;3.90;;
18159;SDS011;9205;52.032;4.314;2024-01-15T08:32:59;4.20;;;4.00;;
18159;SDS011;9205;52.032;4.314;2024-01-15T08:35:26;4.20;;;4.00;;
18159;SDS011;9205;52.032;4.314;2024-01-15T08:37:54;5.83;;;4.33;;
18159;SDS011;9205;52.032;4.314;2024-01-15T08:40:23;9.13;;;4.07;;
18159;SDS011;9205;52.032;4.314;2024-01-15T08:42:52;4.60;;;4.20;;
18159;SDS011;9205;52.032;4.314;2024-01-15T08:45:19;3.77;;;3.60;;
18159;SDS011;9205;52.032;4.314;2024-01-15T08:47:46;4.07;;;3.87;;
18159;SDS011;9205;52.032;4.314;2024-01-15T08:50:14;4.20;;;4.00;;
18159;SDS011;9205;52.032;4.314;2024-01-15T08:52:41;17.47;;;5.23;;
18159;SDS011;9205;52.032;4.314;2024-01-15T08:55:08;4.83;;;4.23;;
18159;SDS011;9205;52.032;4.314;2024-01-15T08:57:35;5.10;;;4.20;;
18159;SDS011;9205;52.032;4.314;2024-01-15T09:00:04;4.37;;;4.17;;
18159;SDS011;9205;52.032;4.314;2024-01-15T09:02:33;4.20;;;4.00;;
18159;SDS011;9205;52.032;4.314;2024-01-15T09:05:00;4.27;;;4.07;;
18159;SDS011;9205;52.032;4.314;2024-01-15T09:07:29;4.10;;;3.90;;
18159;SDS011;9205;52.032;4.314;2024-01-15T09:09:56;4.00;;;3.70;;
18159;SDS011;9205;52.032;4.314;2024-01-15T09:12:24;3.40;;;3.30;;
18159;SDS011;9205;52.032;4.314;2024-01-15T09:14:52;3.50;;;3.40;;
18159;SDS011;9205;52.032;4.314;2024-01-15T09:17:20;3.80;;;3.60;;
18159;SDS011;9205;52.032;4.314;2024-01-15T09:19:48;3.30;;;3.20;;
18159;SDS011;9205;52.032;4.314;2024-01-15T09:22:16;3.50;;;3.40;;
18159;SDS011;9205;52.032;4.314;2024-01-15T09:24:43;4.07;;;3.70;;
18159;SDS011;9205;52.032;4.314;2024-01-15T09:27:11;3.60;;;3.50;;
18159;SDS011;9205;52.032;4.314;2024-01-15T09:29:38;3.90;;;3.70;;
18159;SDS011;9205;52.032;4.314;2024-01-15T09:32:07;3.60;;;3.50;;
18159;SDS011;9205;52.032;4.314;2024-01-15T09:34:36;4.03;;;3.83;;
18159;SDS011;9205;52.032;4.314;2024-01-15T09:37:03;4.00;;;3.80;;
18159;SDS011;9205;52.032;4.314;2024-01-15T09:39:30;4.27;;;4.07;;
18159;SDS011;9205;52.032;4.314;2024-01-15T09:41:58;10.23;;;4.10;;
18159;SDS011;9205;52.032;4.314;2024-01-15T09:44:26;3.97;;;3.77;;
18159;SDS011;9205;52.032;4.314;2024-01-15T09:46:55;3.93;;;3.73;;
18159;SDS011;9205;52.032;4.314;2024-01-15T09:49:24;4.00;;;3.80;;
18159;SDS011;9205;52.032;4.314;2024-01-15T09:51:52;4.17;;;3.97;;
18159;SDS011;9205;52.032;4.314;2024-01-15T09:54:21;3.60;;;3.50;;
18159;SDS011;9205;52.032;4.314;2024-01-15T09:56:49;3.50;;;3.40;;
18159;SDS011;9205;52.032;4.314;2024-01-15T09:59:17;3.67;;;3.47;;
18159;SDS011;9205;52.032;4.314;2024-01-15T10:01:45;3.40;;;3.30;;
18159;SDS011;9205;52.032;4.314;2024-01-15T10:04:14;3.40;;;3.30;;
18159;SDS011;9205;52.032;4.314;2024-01-15T10:06:42;3.10;;;3.00;;
18159;SDS011;9205;52.032;4.314;2024-01-15T10:09:14;3.80;;;3.60;;
18159;SDS011;9205;52.032;4.314;2024-01-15T10:11:41;3.33;;;3.23;;
18159;SDS011;9205;52.032;4.314;2024-01-15T10:14:09;3.40;;;3.30;;
18159;SDS011;9205;52.032;4.314;2024-01-15T10:16:37;3.63;;;3.43;;
18159;SDS011;9205;52.032;4.314;2024-01-15T10:19:04;3.50;;;3.40;;
18159;SDS011;9205;52.032;4.314;2024-01-15T10:21:32;3.30;;;3.20;;
18159;SDS011;9205;52.032;4.314;2024-01-15T10:24:00;3.30;;;3.20;;
18159;SDS011;9205;52.032;4.314;2024-01-15T10:26:30;3.60;;;3.50;;
18159;SDS011;9205;52.032;4.314;2024-01-15T10:28:58;3.30;;;3.20;;
18159;SDS011;9205;52.032;4.314;2024-01-15T10:31:26;3.90;;;3.70;;
18159;SDS011;9205;52.032;4.314;2024-01-15T10:33:53;3.60;;;3.50;;
18159;SDS011;9205;52.032;4.314;2024-01-15T10:36:35;4.00;;;3.80;;
18159;SDS011;9205;52.032;4.314;2024-01-15T10:39:06;3.90;;;3.70;;
18159;SDS011;9205;52.032;4.314;2024-01-15T10:41:35;4.90;;;4.00;;
18159;SDS011;9205;52.032;4.314;2024-01-15T10:44:02;4.10;;;3.90;;
18159;SDS011;9205;52.032;4.314;2024-01-15T10:46:30;4.00;;;3.80;;
18159;SDS011;9205;52.032;4.314;2024-01-15T10:49:00;4.10;;;3.90;;
18159;SDS011;9205;52.032;4.314;2024-01-15T10:51:27;3.90;;;3.70;;
18159;SDS011;9205;52.032;4.314;2024-01-15T10:53:56;15.93;;;4.57;;
18159;SDS011;9205;52.032;4.314;2024-01-15T10:56:25;4.10;;;3.90;;
18159;SDS011;9205;52.032;4.314;2024-01-15T10:58:59;5.87;;;5.37;;
18159;SDS011;9205;52.032;4.314;2024-01-15T11:01:26;4.20;;;4.00;;
18159;SDS011;9205;52.032;4.314;2024-01-15T11:03:55;4.10;;;3.90;;
18159;SDS011;9205;52.032;4.314;2024-01-15T11:06:23;3.90;;;3.70;;
18159;SDS011;9205;52.032;4.314;2024-01-15T11:08:54;3.90;;;3.70;;
18159;SDS011;9205;52.032;4.314;2024-01-15T11:11:22;3.50;;;3.40;;
18159;SDS011;9205;52.032;4.314;2024-01-15T11:13:49;3.70;;;3.50;;
18159;SDS011;9205;52.032;4.314;2024-01-15T11:16:19;3.70;;;3.60;;
18159;SDS011;9205;52.032;4.314;2024-01-15T11:19:01;3.93;;;3.73;;
18159;SDS011;9205;52.032;4.314;2024-01-15T11:21:33;3.30;;;3.20;;
18159;SDS011;9205;52.032;4.314;2024-01-15T11:24:09;3.30;;;3.20;;
18159;SDS011;9205;52.032;4.314;2024-01-15T11:26:38;3.57;;;3.40;;
18159;SDS011;9205;52.032;4.314;2024-01-15T11:31:59;4.37;;;4.03;;
18159;SDS011;9205;52.032;4.314;2024-01-15T11:37:23;3.40;;;3.30;;
18159;SDS011;9205;52.032;4.314;2024-01-15T11:39:52;3.40;;;3.27;;
18159;SDS011;9205;52.032;4.314;2024-01-15T11:42:20;3.70;;;3.50;;
18159;SDS011;9205;52.032;4.314;2024-01-15T11:44:49;3.20;;;3.10;;
18159;SDS011;9205;52.032;4.314;2024-01-15T11:47:24;5.23;;;4.57;;
18159;SDS011;9205;52.032;4.314;2024-01-15T11:50:23;3.60;;;3.50;;
18159;SDS011;9205;52.032;4.314;2024-01-15T11:52:56;3.43;;;3.33;;
18159;SDS011;9205;52.032;4.314;2024-01-15T11:55:27;3.83;;;3.63;;
18159;SDS011;9205;52.032;4.314;2024-01-15T11:58:00;3.77;;;3.57;;
18159;SDS011;9205;52.032;4.314;2024-01-15T12:00:30;3.20;;;3.10;;
18159;SDS011;9205;52.032;4.314;2024-01-15T12:02:59;5.60;;;3.20;;
18159;SDS011;9205;52.032;4.314;2024-01-15T12:05:27;9.23;;;3.80;;
18159;SDS011;9205;52.032;4.314;2024-01-15T12:07:55;3.30;;;3.20;;
18159;SDS011;9205;52.032;4.314;2024-01-15T12:10:22;3.20;;;3.10;;
18159;SDS011;9205;52.032;4.314;2024-01-15T12:12:54;3.60;;;3.40;;
18159;SDS011;9205;52.032;4.314;2024-01-15T12:15:25;4.10;;;3.90;;
18159;SDS011;9205;52.032;4.314;2024-01-15T12:17:54;3.30;;;3.20;;
18159;SDS011;9205;52.032;4.314;2024-01-15T12:20:25;18.97;;;4.13;;
18159;SDS011;9205;52.032;4.314;2024-01-15T12:22:53;3.60;;;3.50;;
18159;SDS011;9205;52.032;4.314;2024-01-15T12:25:21;3.63;;;3.50;;
18159;SDS011;9205;52.032;4.314;2024-01-15T12:27:49;3.80;;;3.60;;
18159;SDS011;9205;52.032;4.314;2024-01-15T12:30:17;3.40;;;3.30;;
18159;SDS011;9205;52.032;4.314;2024-01-15T12:32:45;3.50;;;3.40;;
18159;SDS011;9205;52.032;4.314;2024-01-15T12:35:13;3.60;;;3.50;;
18159;SDS011;9205;52.032;4.314;2024-01-15T12:37:42;4.33;;;4.03;;
18159;SDS011;9205;52.032;4.314;2024-01-15T12:40:11;3.10;;;3.00;;
18159;SDS011;9205;52.032;4.314;2024-01-15T12:42:40;2.67;;;2.57;;
18159;SDS011;9205;52.032;4.314;2024-01-15T12:45:08;3.03;;;2.93;;
18159;SDS011;9205;52.032;4.314;2024-01-15T12:47:38;2.70;;;2.60;;
18159;SDS011;9205;52.032;4.314;2024-01-15T12:50:06;3.10;;;2.90;;
18159;SDS011;9205;52.032;4.314;2024-01-15T12:52:34;2.87;;;2.77;;
18159;SDS011;9205;52.032;4.314;2024-01-15T12:55:04;2.60;;;2.50;;
18159;SDS011;9205;52.032;4.314;2024-01-15T12:57:33;2.80;;;2.70;;
18159;SDS011;9205;52.032;4.314;2024-01-15T13:00:02;2.60;;;2.50;;
18159;SDS011;9205;52.032;4.314;2024-01-15T13:02:32;2.33;;;2.23;;
18159;SDS011;9205;52.032;4.314;2024-01-15T13:04:59;2.20;;;2.10;;
18159;SDS011;9205;52.032;4.314;2024-01-15T13:07:29;2.90;;;2.80;;
18159;SDS011;9205;52.032;4.314;2024-01-15T13:09:56;3.40;;;3.30;;
18159;SDS011;9205;52.032;4.314;2024-01-15T13:12:25;3.90;;;3.70;;
18159;SDS011;9205;52.032;4.314;2024-01-15T13:14:52;3.40;;;3.30;;
18159;SDS011;9205;52.032;4.314;2024-01-15T13:17:19;3.40;;;3.30;;
18159;SDS011;9205;52.032;4.314;2024-01-15T13:19:47;3.20;;;3.10;;
18159;SDS011;9205;52.032;4.314;2024-01-15T13:22:14;3.50;;;3.30;;
18159;SDS011;9205;52.032;4.314;2024-01-15T13:24:41;3.00;;;2.90;;
18159;SDS011;9205;52.032;4.314;2024-01-15T13:27:09;3.00;;;2.90;;
18159;SDS011;9205;52.032;4.314;2024-01-15T13:29:38;2.90;;;2.80;;
18159;SDS011;9205;52.032;4.314;2024-01-15T13:32:05;2.90;;;2.80;;
18159;SDS011;9205;52.032;4.314;2024-01-15T13:34:32;3.10;;;3.00;;
18159;SDS011;9205;52.032;4.314;2024-01-15T13:37:00;3.00;;;2.90;;
18159;SDS011;9205;52.032;4.314;2024-01-15T13:39:27;3.10;;;3.00;;
18159;SDS011;9205;52.032;4.314;2024-01-15T13:41:58;3.00;;;2.90;;
18159;SDS011;9205;52.032;4.314;2024-01-15T13:44:26;3.20;;;3.10;;
18159;SDS011;9205;52.032;4.314;2024-01-15T13:46:55;4.00;;;3.77;;
18159;SDS011;9205;52.032;4.314;2024-01-15T13:49:22;3.30;;;3.20;;
18159;SDS011;9205;52.032;4.314;2024-01-15T13:51:50;3.70;;;3.50;;
18159;SDS011;9205;52.032;4.314;2024-01-15T13:54:17;3.90;;;3.70;;
18159;SDS011;9205;52.032;4.314;2024-01-15T13:56:45;3.40;;;3.30;;
18159;SDS011;9205;52.032;4.314;2024-01-15T13:59:13;3.77;;;3.57;;
18159;SDS011;9205;52.032;4.314;2024-01-15T14:01:40;3.50;;;3.40;;
18159;SDS011;9205;52.032;4.314;2024-01-15T14:04:10;3.20;;;3.10;;
18159;SDS011;9205;52.032;4.314;2024-01-15T14:06:37;3.30;;;3.20;;
18159;SDS011;9205;52.032;4.314;2024-01-15T14:09:05;2.93;;;2.83;;
18159;SDS011;9205;52.032;4.314;2024-01-15T14:11:35;3.10;;;3.00;;
18159;SDS011;9205;52.032;4.314;2024-01-15T14:14:02;2.80;;;2.70;;
18159;SDS011;9205;52.032;4.314;2024-01-15T14:16:30;3.10;;;3.00;;
18159;SDS011;9205;52.032;4.314;2024-01-15T14:18:57;3.10;;;3.00;;
18159;SDS011;9205;52.032;4.314;2024-01-15T14:21:25;4.07;;;3.80;;
18159;SDS011;9205;52.032;4.314;2024-01-15T14:23:52;3.90;;;3.70;;
18159;SDS011;9205;52.032;4.314;2024-01-15T14:26:20;3.50;;;3.40;;
18159;SDS011;9205;52.032;4.314;2024-01-15T14:28:47;3.60;;;3.40;;
18159;SDS011;9205;52.032;4.314;2024-01-15T14:31:14;3.13;;;3.03;;
18159;SDS011;9205;52.032;4.314;2024-01-15T14:33:41;3.80;;;3.60;;
18159;SDS011;9205;52.032;4.314;2024-01-15T14:36:08;6.73;;;3.87;;
18159;SDS011;9205;52.032;4.314;2024-01-15T14:38:37;2.90;;;2.80;;
18159;SDS011;9205;52.032;4.314;2024-01-15T14:41:04;2.97;;;2.87;;
18159;SDS011;9205;52.032;4.314;2024-01-15T14:43:31;3.60;;;3.30;;
18159;SDS011;9205;52.032;4.314;2024-01-15T14:45:59;3.00;;;2.90;;
18159;SDS011;9205;52.032;4.314;2024-01-15T14:48:26;3.57;;;3.47;;
18159;SDS011;9205;52.032;4.314;2024-01-15T14:50:53;3.27;;;3.17;;
18159;SDS011;9205;52.032;4.314;2024-01-15T14:53:20;4.10;;;3.90;;
18159;SDS011;9205;52.032;4.314;2024-01-15T14:55:49;3.40;;;3.30;;
18159;SDS011;9205;52.032;4.314;2024-01-15T14:58:16;3.70;;;3.53;;
18159;SDS011;9205;52.032;4.314;2024-01-15T15:00:42;13.37;;;4.03;;
18159;SDS011;9205;52.032;4.314;2024-01-15T15:03:11;3.40;;;3.30;;
18159;SDS011;9205;52.032;4.314;2024-01-15T15:05:40;3.40;;;3.30;;
18159;SDS011;9205;52.032;4.314;2024-01-15T15:08:08;3.40;;;3.30;;
18159;SDS011;9205;52.032;4.314;2024-01-15T15:10:37;3.40;;;3.30;;